createdAt,value
2024-03-05T00:03:46.298Z,14.30
2024-03-05T00:18:48.452Z,16.47
2024-03-05T00:33:50.453Z,13.77
2024-03-05T00:48:53.228Z,14.70
2024-03-05T01:03:56.844Z,17.53
2024-03-05T01:18:59.140Z,17.13
2024-03-05T01:34:04.571Z,16.97
2024-03-05T01:49:09.347Z,13.00
2024-03-05T02:04:12.313Z,19.33
2024-03-05T02:19:14.467Z,16.83
2024-03-05T02:34:20.956Z,16.17
2024-03-05T02:49:23.050Z,21.03
2024-03-05T03:04:26.820Z,12.63
2024-03-05T03:19:29.054Z,14.97
2024-03-05T03:34:31.943Z,17.93
2024-03-05T03:49:34.792Z,14.97
2024-03-05T04:04:43.953Z,14.37
2024-03-05T04:19:46.261Z,12.80
2024-03-05T04:35:01.244Z,19.30
2024-03-05T04:50:03.836Z,16.03
2024-03-05T05:05:05.946Z,13.57
2024-03-05T05:20:09.663Z,10.43
2024-03-05T05:35:11.815Z,16.50
2024-03-05T05:50:19.569Z,19.23
2024-03-05T06:05:29.547Z,11.60
2024-03-05T06:20:33.999Z,13.03
2024-03-05T06:35:37.150Z,13.30
2024-03-05T06:50:40.339Z,13.70
2024-03-05T07:05:43.474Z,12.97
2024-03-05T07:20:47.288Z,13.30
2024-03-05T07:35:49.624Z,12.57
2024-03-05T07:50:51.654Z,14.03
2024-03-05T08:05:53.584Z,14.93
2024-03-05T08:20:56.835Z,10.80
2024-03-05T08:35:59.030Z,16.37
2024-03-05T08:51:01.186Z,9.83
2024-03-05T09:06:03.668Z,14.03
2024-03-05T09:21:08.842Z,9.83
2024-03-05T09:36:10.992Z,10.23
2024-03-05T09:51:15.955Z,11.33
2024-03-05T10:21:24.008Z,11.70
2024-03-05T10:36:35.117Z,8.27
2024-03-05T10:51:40.012Z,10.50
2024-03-05T11:06:42.795Z,12.73
2024-03-05T11:21:45.055Z,10.27
2024-03-05T11:37:06.640Z,10.47
2024-03-05T11:52:09.564Z,11.00
2024-03-05T12:07:15.058Z,10.27
2024-03-05T12:22:17.972Z,11.17
2024-03-05T12:37:20.963Z,10.50
2024-03-05T12:52:26.292Z,11.33
2024-03-05T13:07:28.369Z,9.52
2024-03-05T13:22:30.822Z,11.83
2024-03-05T13:37:36.643Z,9.63
2024-03-05T13:52:43.495Z,9.80
2024-03-05T14:07:45.854Z,15.00
2024-03-05T14:22:48.204Z,13.33
2024-03-05T14:37:51.021Z,16.20
2024-03-05T14:52:55.733Z,13.20
2024-03-05T15:07:57.964Z,15.00
2024-03-05T15:23:01.003Z,16.53
2024-03-05T15:38:06.854Z,22.17
2024-03-05T15:53:09.593Z,13.77
2024-03-05T16:08:13.085Z,19.93
2024-03-05T16:23:15.376Z,20.03
2024-03-05T16:38:17.742Z,26.50
2024-03-05T16:53:19.969Z,16.53
2024-03-05T17:08:25.623Z,17.47
2024-03-05T17:23:42.618Z,22.50
2024-03-05T17:38:44.580Z,22.47
2024-03-05T17:53:47.160Z,16.13
2024-03-05T18:08:49.293Z,16.73
2024-03-05T18:23:57.973Z,24.63
2024-03-05T18:39:01.486Z,14.37
2024-03-05T18:54:06.254Z,13.23
2024-03-05T19:09:10.189Z,17.60
2024-03-05T19:24:12.829Z,20.40
2024-03-05T19:39:14.819Z,16.87
2024-03-05T19:54:16.817Z,20.23
2024-03-05T20:09:21.728Z,16.63
2024-03-05T20:24:23.865Z,19.00
2024-03-05T20:39:25.836Z,26.43
2024-03-05T20:54:27.829Z,17.60
2024-03-05T21:09:29.780Z,23.43
2024-03-05T21:24:31.963Z,24.27
2024-03-05T21:39:34.594Z,22.63
2024-03-05T21:54:36.548Z,20.93
2024-03-05T22:09:40.540Z,19.80
2024-03-05T22:24:42.682Z,23.07
2024-03-05T22:39:44.622Z,30.63
2024-03-05T22:54:46.992Z,25.87
2024-03-05T23:09:48.999Z,31.77
2024-03-05T23:24:51.158Z,26.13
2024-03-05T23:39:53.368Z,42.20
2024-03-05T23:54:58.088Z,45.13
